Time;durP1;ratioP1;P1;durP2;ratioP2;P2;SDS_P1;SDS_P2;PMS_P1;PMS_P2;Temp;Humidity;BMP_temperature;BMP_pressure;BME280_temperature;BME280_humidity;BME280_pressure;Samples;Min_cycle;Max_cycle;Signal;HPM_P1;HPM_P2
2021/04/27 00:01:44;;;;;;;4.43;1.30;;;;;;;3.26;71.08;100769.84;5115760;28;20032;-76
2021/04/27 00:04:14;;;;;;;4.18;1.55;;;;;;;3.01;72.25;100773.38;5111310;29;20040;-76
2021/04/27 00:06:45;;;;;;;3.45;1.33;;;;;;;3.03;71.48;100774.22;5118038;28;20035;-76
2021/04/27 00:09:15;;;;;;;3.53;1.13;;;;;;;2.82;73.44;100771.69;5120300;28;20533;-76
2021/04/27 00:11:45;;;;;;;5.03;1.38;;;;;;;2.85;73.10;100776.84;5112995;29;20111;-75
2021/04/27 00:14:15;;;;;;;3.30;1.35;;;;;;;2.70;73.74;100789.75;5113905;28;20118;-76
2021/04/27 00:16:46;;;;;;;1.90;1.15;;;;;;;2.90;73.04;100795.75;5118390;28;20028;-76
2021/04/27 00:19:16;;;;;;;3.05;1.27;;;;;;;2.89;72.72;100794.03;5110803;29;20067;-76
2021/04/27 00:21:47;;;;;;;4.10;1.08;;;;;;;3.02;71.27;100785.41;5112389;29;20493;-75
2021/04/27 00:24:17;;;;;;;4.38;1.20;;;;;;;3.14;70.72;100793.09;5114241;28;20119;-76
2021/04/27 00:26:47;;;;;;;3.20;1.15;;;;;;;3.16;70.39;100787.09;5112698;29;20039;-76
2021/04/27 00:29:17;;;;;;;2.83;1.23;;;;;;;3.43;69.14;100778.38;5110809;29;20039;-76
2021/04/27 00:31:48;;;;;;;5.22;1.40;;;;;;;3.52;68.54;100774.03;5112118;29;20023;-76
2021/04/27 00:34:18;;;;;;;3.53;1.40;;;;;;;3.51;68.76;100779.22;5116299;28;20019;-76
2021/04/27 00:36:49;;;;;;;4.47;1.27;;;;;;;3.58;68.67;100768.00;5117217;28;20038;-76
2021/04/27 00:39:19;;;;;;;3.78;1.52;;;;;;;3.47;68.81;100772.34;5119389;28;20045;-76
2021/04/27 00:41:49;;;;;;;4.13;1.23;;;;;;;3.54;68.96;100781.81;5110972;29;20536;-76
2021/04/27 00:44:20;;;;;;;3.22;1.10;;;;;;;3.53;69.40;100780.94;5110018;28;20063;-76
2021/04/27 00:46:50;;;;;;;4.90;1.40;;;;;;;3.11;71.24;100770.75;5118832;28;20482;-76
2021/04/27 00:49:20;;;;;;;5.63;1.33;;;;;;;2.90;71.45;100780.25;5121630;28;20035;-76
2021/04/27 00:51:51;;;;;;;3.78;1.20;;;;;;;3.20;70.34;100773.28;5113796;29;20383;-76
2021/04/27 00:54:21;;;;;;;5.10;1.20;;;;;;;3.15;71.23;100774.16;5112530;29;20106;-76
2021/04/27 00:56:51;;;;;;;4.30;1.63;;;;;;;3.30;70.42;100766.38;5111182;29;20358;-76
2021/04/27 00:59:22;;;;;;;3.33;1.35;;;;;;;3.10;71.43;100773.31;5113695;28;20536;-75
2021/04/27 01:01:52;;;;;;;3.78;1.10;;;;;;;2.74;73.34;100766.53;5113236;28;20035;-76
2021/04/27 01:04:22;;;;;;;3.00;1.25;;;;;;;2.88;72.22;100754.44;5111530;28;20035;-75
2021/04/27 01:06:52;;;;;;;2.97;1.42;;;;;;;3.12;69.50;100763.84;5115977;28;20035;-75
2021/04/27 01:09:35;;;;;;;5.30;1.40;;;;;;;3.24;68.85;100758.66;5116708;28;20087;-75
2021/04/27 01:12:14;;;;;;;3.33;1.42;;;;;;;3.12;70.28;100762.16;5112214;29;20070;-75
2021/04/27 01:14:49;;;;;;;2.35;1.20;;;;;;;2.85;70.51;100756.19;5112573;28;20033;-75
2021/04/27 01:17:21;;;;;;;2.92;1.10;;;;;;;2.80;72.29;100752.72;5114193;28;20402;-75
2021/04/27 01:20:07;;;;;;;5.75;1.48;;;;;;;2.75;71.04;100751.91;5111233;29;20522;-75
2021/04/27 01:22:57;;;;;;;5.07;1.30;;;;;;;2.98;69.77;100750.13;5113252;28;20050;-75
2021/04/27 01:25:36;;;;;;;5.53;1.63;;;;;;;3.08;69.57;100744.97;5108933;29;20035;-75
2021/04/27 01:28:08;;;;;;;3.45;1.40;;;;;;;2.92;70.17;100744.97;5111068;29;20031;-75
2021/04/27 01:30:41;;;;;;;3.47;1.45;;;;;;;2.96;69.16;100746.69;5111815;29;20105;-76
2021/04/27 01:33:15;;;;;;;1.95;0.95;;;;;;;2.88;69.78;100746.69;5112096;28;20027;-75
2021/04/27 01:35:46;;;;;;;4.43;1.20;;;;;;;3.03;70.85;100744.09;5110796;28;20055;-76
2021/04/27 01:38:19;;;;;;;4.93;1.35;;;;;;;2.11;73.44;100742.44;5117044;28;20030;-76
2021/04/27 01:40:51;;;;;;;3.83;1.27;;;;;;;2.00;73.70;100739.03;5111672;29;20490;-76
2021/04/27 01:43:22;;;;;;;3.60;1.40;;;;;;;1.88;74.40;100739.00;5092880;28;20024;-76
2021/04/27 01:46:05;;;;;;;4.88;1.27;;;;;;;2.00;75.06;100741.59;5109937;28;20028;-75
2021/04/27 01:48:37;;;;;;;5.88;1.45;;;;;;;1.88;75.03;100739.88;5110347;29;20031;-76
2021/04/27 01:51:10;;;;;;;5.60;1.40;;;;;;;1.93;75.44;100742.44;5112057;28;20093;-76
2021/04/27 01:53:43;;;;;;;3.65;1.27;;;;;;;1.45;76.45;100739.75;5110389;29;20031;-75
2021/04/27 01:56:13;;;;;;;4.35;1.23;;;;;;;1.40;77.50;100736.28;5109575;29;20032;-75
2021/04/27 01:58:44;;;;;;;6.50;1.67;;;;;;;1.34;77.73;100736.28;5111763;29;20031;-75
2021/04/27 02:01:14;;;;;;;3.95;1.40;;;;;;;1.49;77.74;100740.59;5112384;29;20039;-76
2021/04/27 02:03:48;;;;;;;4.32;1.60;;;;;;;1.63;76.82;100736.34;5111421;29;20391;-75
2021/04/27 02:06:18;;;;;;;2.50;1.30;;;;;;;1.57;77.80;100732.03;5120555;28;20109;-76
2021/04/27 02:08:58;;;;;;;3.88;1.60;;;;;;;1.68;76.83;100737.22;5126460;28;20074;-75
2021/04/27 02:11:33;;;;;;;3.65;1.15;;;;;;;1.73;77.25;100728.66;5112971;29;20102;-75
2021/04/27 02:14:05;;;;;;;3.13;1.25;;;;;;;1.80;75.89;100731.25;5121693;28;20031;-75
2021/04/27 02:16:47;;;;;;;3.17;1.52;;;;;;;1.53;77.38;100735.47;5123350;28;20031;-75
2021/04/27 02:19:21;;;;;;;3.17;1.25;;;;;;;1.54;76.28;100738.94;5110253;29;20046;-75
2021/04/27 02:21:55;;;;;;;4.60;1.65;;;;;;;1.40;77.72;100741.44;5111618;29;20036;-76
2021/04/27 02:24:25;;;;;;;3.03;1.35;;;;;;;1.37;79.38;100741.44;5110060;28;20423;-75
2021/04/27 02:26:56;;;;;;;5.93;1.55;;;;;;;1.35;77.93;100738.00;5112388;29;20039;-76
2021/04/27 02:29:29;;;;;;;6.32;1.38;;;;;;;1.49;77.56;100726.03;5110205;28;20638;-76
2021/04/27 02:32:00;;;;;;;3.95;1.45;;;;;;;1.51;76.31;100728.59;5112172;29;20023;-75
2021/04/27 02:34:31;;;;;;;3.47;1.30;;;;;;;1.61;77.06;100728.63;5109266;29;20035;-75
2021/04/27 02:37:01;;;;;;;4.07;1.40;;;;;;;1.59;76.75;100727.75;5120074;28;20607;-75
2021/04/27 02:39:31;;;;;;;3.33;1.42;;;;;;;1.42;78.10;100721.69;5117961;28;20038;-76
2021/04/27 02:42:03;;;;;;;3.17;1.50;;;;;;;1.43;77.91;100723.41;5107807;29;20050;-75
2021/04/27 02:44:34;;;;;;;3.10;1.48;;;;;;;1.37;77.67;100720.00;5111507;28;20433;-75
2021/04/27 02:47:04;;;;;;;3.03;1.38;;;;;;;1.14;79.90;100719.91;5111880;28;20106;-75
2021/04/27 02:49:35;;;;;;;5.43;1.70;;;;;;;0.82;83.33;100720.56;5123325;28;20031;-75
2021/04/27 02:52:05;;;;;;;4.38;1.52;;;;;;;0.59;83.19;100727.28;5094118;28;20031;-75
2021/04/27 02:54:36;;;;;;;3.40;1.35;;;;;;;0.66;82.53;100724.78;5122695;28;20015;-76
2021/04/27 02:57:06;;;;;;;6.05;1.58;;;;;;;0.85;81.97;100715.44;5095069;29;20035;-75
2021/04/27 02:59:36;;;;;;;4.13;1.60;;;;;;;0.88;82.14;100716.31;5109606;29;20112;-75
2021/04/27 03:02:07;;;;;;;3.17;1.40;;;;;;;0.87;80.69;100714.59;5114879;29;20526;-75
2021/04/27 03:04:37;;;;;;;3.17;1.27;;;;;;;0.78;81.79;100712.00;5121110;28;20413;-76
2021/04/27 03:07:07;;;;;;;5.13;1.38;;;;;;;0.82;81.20;100716.31;5129785;28;20113;-76
2021/04/27 03:09:38;;;;;;;4.07;1.40;;;;;;;0.93;81.29;100706.91;5123882;28;20051;-76
2021/04/27 03:12:08;;;;;;;3.60;1.58;;;;;;;1.05;80.25;100708.69;5095425;29;20035;-76
2021/04/27 03:14:38;;;;;;;4.00;1.48;;;;;;;1.15;79.82;100705.28;5193536;23;20460;-80
2021/04/27 03:17:09;;;;;;;4.80;1.80;;;;;;;1.00;81.46;100708.69;5185318;28;20102;-79
2021/04/27 03:19:39;;;;;;;2.88;1.60;;;;;;;0.85;82.11;100705.16;5186929;28;20499;-79
2021/04/27 03:22:09;;;;;;;4.72;1.70;;;;;;;0.76;82.25;100705.97;5187632;28;20049;-79
2021/04/27 03:24:40;;;;;;;3.45;1.67;;;;;;;0.90;81.56;100713.78;5188403;28;20419;-78
2021/04/27 03:27:10;;;;;;;4.53;1.50;;;;;;;1.18;80.55;100700.16;5184235;28;20053;-78
2021/04/27 03:29:40;;;;;;;4.15;1.45;;;;;;;1.04;79.90;100702.69;5186595;28;20080;-78
2021/04/27 03:32:11;;;;;;;5.63;1.92;;;;;;;0.90;80.42;100708.63;5184358;28;20061;-77
2021/04/27 03:34:41;;;;;;;6.43;1.52;;;;;;;0.99;80.78;100706.09;5184188;28;20046;-78
2021/04/27 03:37:12;;;;;;;3.72;1.60;;;;;;;1.01;80.29;100701.78;5186112;28;20642;-80
2021/04/27 03:39:42;;;;;;;7.18;1.42;;;;;;;0.77;81.36;100706.84;5188287;28;20049;-80
2021/04/27 03:42:12;;;;;;;4.57;1.50;;;;;;;0.94;81.68;100700.06;5186984;28;20045;-78
2021/04/27 03:44:43;;;;;;;7.68;1.50;;;;;;;1.22;80.30;100707.06;5187976;28;20082;-77
2021/04/27 03:47:13;;;;;;;5.78;1.60;;;;;;;0.91;80.23;100707.78;5187099;28;20388;-77
2021/04/27 03:49:43;;;;;;;4.30;1.38;;;;;;;0.81;81.01;100709.44;5186600;28;20034;-80
2021/04/27 03:52:14;;;;;;;6.07;1.50;;;;;;;0.83;82.27;100707.72;5188303;28;20385;-78
2021/04/27 03:54:44;;;;;;;2.75;1.35;;;;;;;1.09;81.21;100700.97;5186698;28;20018;-78
2021/04/27 03:57:14;;;;;;;3.63;1.95;;;;;;;0.83;81.57;100707.72;5187687;28;20022;-77
2021/04/27 03:59:45;;;;;;;2.75;1.45;;;;;;;0.90;81.45;100709.47;5187575;28;20018;-76
2021/04/27 04:02:15;;;;;;;5.97;1.60;;;;;;;1.02;80.56;100708.66;5187498;28;20026;-77
2021/04/27 04:04:45;;;;;;;3.38;1.52;;;;;;;0.92;80.92;100712.91;5187590;28;20027;-79
2021/04/27 04:07:16;;;;;;;5.70;1.80;;;;;;;1.03;79.68;100705.28;5189343;28;20026;-78
2021/04/27 04:09:46;;;;;;;6.60;1.80;;;;;;;1.24;78.82;100705.34;5188801;28;20029;-78
2021/04/27 04:12:16;;;;;;;5.15;1.63;;;;;;;1.39;78.63;100706.25;5183867;28;20548;-79
2021/04/27 04:14:47;;;;;;;7.50;1.65;;;;;;;1.42;77.96;100700.25;5184201;28;20023;-79
2021/04/27 04:17:17;;;;;;;3.08;1.50;;;;;;;1.32;79.34;100703.66;5183121;28;20018;-78
2021/04/27 04:19:48;;;;;;;5.97;1.70;;;;;;;1.34;79.28;100705.38;5178595;28;20097;-78
2021/04/27 04:22:19;;;;;;;3.83;1.30;;;;;;;1.37;78.38;100707.97;5183703;28;20392;-77
2021/04/27 04:24:50;;;;;;;7.30;1.67;;;;;;;1.28;79.58;100707.94;5182960;28;20034;-76
2021/04/27 04:27:20;;;;;;;6.63;1.52;;;;;;;1.27;79.52;100705.34;5180240;28;20033;-78
2021/04/27 04:29:50;;;;;;;10.43;1.90;;;;;;;1.23;80.13;100709.63;5183345;28;20033;-77
2021/04/27 04:32:21;;;;;;;3.75;1.90;;;;;;;1.46;80.03;100708.00;5181044;28;20031;-77
2021/04/27 04:34:51;;;;;;;5.55;1.52;;;;;;;1.27;80.51;100703.63;5182658;28;20026;-76
2021/04/27 04:37:21;;;;;;;8.15;1.83;;;;;;;1.48;79.98;100701.13;5176675;28;20026;-77
2021/04/27 04:39:52;;;;;;;3.92;1.70;;;;;;;1.88;78.59;100700.34;5182590;28;20038;-77
2021/04/27 04:42:22;;;;;;;4.22;1.73;;;;;;;1.76;78.12;100705.47;5180242;28;21347;-78
2021/04/27 04:44:52;;;;;;;3.97;1.80;;;;;;;1.98;79.16;100700.34;5179319;28;20036;-76
2021/04/27 04:47:23;;;;;;;5.03;1.75;;;;;;;2.24;77.79;100705.50;5179680;28;20781;-77
2021/04/27 04:49:53;;;;;;;3.55;1.35;;;;;;;2.55;76.97;100700.34;5181337;28;20045;-78
2021/04/27 04:52:24;;;;;;;4.32;1.85;;;;;;;2.47;75.32;100711.53;5175219;28;20030;-78
2021/04/27 04:54:54;;;;;;;5.00;1.73;;;;;;;2.59;75.85;100708.91;5173998;28;20514;-78
2021/04/27 04:57:24;;;;;;;8.82;1.77;;;;;;;3.10;74.04;100698.47;5179026;28;20026;-78
2021/04/27 04:59:55;;;;;;;5.75;1.50;;;;;;;4.31;71.39;100702.88;5180667;28;20038;-77
2021/04/27 05:02:25;;;;;;;4.50;1.63;;;;;;;6.28;67.25;100686.59;5179860;28;20026;-77
2021/04/27 05:04:55;;;;;;;4.15;1.70;;;;;;;7.97;60.58;100684.00;5180485;28;20030;-77
2021/04/27 05:07:27;;;;;;;4.82;1.63;;;;;;;8.89;57.13;100682.53;5179572;28;20053;-78
2021/04/27 05:10:00;;;;;;;3.58;1.30;;;;;;;10.46;55.38;100682.06;5180022;28;20088;-77
2021/04/27 05:12:30;;;;;;;4.68;1.58;;;;;;;10.36;53.25;100680.69;5180339;28;20028;-79
2021/04/27 05:15:01;;;;;;;3.30;1.38;;;;;;;10.94;52.81;100677.78;5172769;28;20026;-76
2021/04/27 05:17:31;;;;;;;2.92;1.40;;;;;;;11.67;49.32;100675.91;5174644;28;20076;-76
2021/04/27 05:20:04;;;;;;;3.65;1.38;;;;;;;11.54;50.20;100684.25;5165836;28;20032;-77
2021/04/27 05:22:34;;;;;;;3.47;1.70;;;;;;;12.10;48.40;100673.31;5168227;28;20030;-79
2021/04/27 05:25:05;;;;;;;3.80;1.60;;;;;;;11.45;49.36;100685.44;5175188;28;20479;-77
2021/04/27 05:27:35;;;;;;;4.07;1.83;;;;;;;11.55;50.53;100681.56;5173879;28;20034;-80
2021/04/27 05:30:07;;;;;;;3.70;1.58;;;;;;;11.24;50.21;100683.63;5172939;28;20084;-76
2021/04/27 05:32:37;;;;;;;5.18;1.55;;;;;;;13.69;47.01;100674.16;5169747;28;20036;-79
2021/04/27 05:35:09;;;;;;;4.22;1.65;;;;;;;12.80;48.73;100674.69;5176308;28;20479;-80
2021/04/27 05:37:40;;;;;;;4.57;1.50;;;;;;;15.24;44.50;100658.38;5175265;28;20033;-78
2021/04/27 05:40:11;;;;;;;5.15;1.85;;;;;;;13.21;47.97;100665.91;5171643;28;20029;-77
2021/04/27 05:42:41;;;;;;;5.43;1.95;;;;;;;14.58;44.79;100668.91;5171438;28;20026;-77
2021/04/27 05:45:12;;;;;;;4.75;1.83;;;;;;;15.23;43.80;100661.94;5166466;28;20038;-77
2021/04/27 05:47:42;;;;;;;3.78;1.90;;;;;;;14.34;46.12;100664.00;5172025;28;20076;-77
2021/04/27 05:50:13;;;;;;;4.30;1.80;;;;;;;16.29;42.20;100655.09;5173574;28;20030;-76
2021/04/27 05:52:43;;;;;;;4.80;1.80;;;;;;;16.40;43.47;100655.34;5168234;28;20767;-77
2021/04/27 05:55:14;;;;;;;5.07;1.77;;;;;;;14.47;45.90;100668.59;5168501;28;20694;-76
2021/04/27 05:57:44;;;;;;;4.00;1.70;;;;;;;12.16;49.26;100675.66;5167271;28;20492;-77
2021/04/27 06:00:15;;;;;;;5.50;1.92;;;;;;;10.05;54.14;100693.00;5171351;28;20034;-78
2021/04/27 06:02:45;;;;;;;4.43;2.17;;;;;;;8.60;58.20;100692.88;5177095;28;20037;-79
2021/04/27 06:05:16;;;;;;;8.50;2.45;;;;;;;7.99;59.33;100704.75;5174012;28;20027;-80
2021/04/27 06:07:47;;;;;;;3.83;2.47;;;;;;;7.46;61.92;100690.38;5176195;28;20622;-80
2021/04/27 06:10:17;;;;;;;5.70;2.30;;;;;;;7.27;63.30;100702.91;5177873;28;20094;-77
2021/04/27 06:12:48;;;;;;;9.05;2.35;;;;;;;7.34;62.16;100695.81;5174238;28;20034;-79
2021/04/27 06:15:18;;;;;;;5.80;2.55;;;;;;;7.23;61.85;100694.31;5173842;28;20041;-79
2021/04/27 06:17:48;;;;;;;5.07;2.58;;;;;;;7.41;61.94;100696.53;5176502;28;20627;-77
2021/04/27 06:20:19;;;;;;;6.70;2.30;;;;;;;8.33;57.27;100690.09;5177387;28;20030;-79
2021/04/27 06:22:49;;;;;;;5.80;2.53;;;;;;;10.30;53.56;100686.09;5174416;28;20050;-78
2021/04/27 06:25:20;;;;;;;6.60;2.58;;;;;;;11.77;50.68;100677.25;5175171;28;20543;-79
2021/04/27 06:27:52;;;;;;;4.60;2.28;;;;;;;11.75;49.88;100678.25;5174829;28;20037;-79
2021/04/27 06:30:23;;;;;;;4.97;2.22;;;;;;;13.02;48.30;100676.38;5175807;28;20084;-80
2021/04/27 06:32:53;;;;;;;5.03;2.13;;;;;;;14.10;46.10;100670.44;5174150;28;20072;-77
2021/04/27 06:35:25;;;;;;;3.67;1.70;;;;;;;14.01;44.48;100674.34;5174776;28;20452;-78
2021/04/27 06:37:56;;;;;;;5.10;2.13;;;;;;;13.47;45.70;100678.72;5180462;28;20033;-77
2021/04/27 06:40:27;;;;;;;5.05;2.15;;;;;;;13.68;46.11;100680.34;5179517;28;20026;-78
2021/04/27 06:42:57;;;;;;;5.13;2.10;;;;;;;13.64;44.14;100679.66;5176637;28;20408;-78
2021/04/27 06:45:27;;;;;;;6.13;2.22;;;;;;;14.64;44.72;100673.88;5178325;28;20034;-79
2021/04/27 06:47:58;;;;;;;5.28;2.25;;;;;;;14.50;43.94;100667.56;5179628;28;20445;-78
2021/04/27 06:50:28;;;;;;;5.07;2.20;;;;;;;16.08;42.51;100661.59;5177396;28;20117;-78
2021/04/27 06:52:58;;;;;;;4.53;2.20;;;;;;;17.19;41.29;100654.97;5178837;28;20280;-78
2021/04/27 06:55:29;;;;;;;5.20;2.17;;;;;;;16.17;41.50;100657.56;5176118;28;20323;-77
2021/04/27 06:58:04;;;;;;;5.78;2.30;;;;;;;16.04;42.91;100659.22;5180848;28;20041;-78
2021/04/27 07:00:35;;;;;;;4.68;1.98;;;;;;;14.23;43.79;100664.53;5174082;28;20281;-78
2021/04/27 07:03:07;;;;;;;4.30;2.10;;;;;;;15.53;42.15;100667.38;5179638;28;20575;-78
2021/04/27 07:05:37;;;;;;;6.97;2.20;;;;;;;15.55;41.93;100658.44;5171561;28;20740;-77
2021/04/27 07:08:08;;;;;;;4.93;2.15;;;;;;;15.05;41.68;100657.63;5177810;28;20033;-77
2021/04/27 07:10:39;;;;;;;5.25;2.20;;;;;;;14.68;42.90;100659.63;5179933;28;20513;-78
2021/04/27 07:13:10;;;;;;;5.43;2.40;;;;;;;15.11;42.18;100653.81;5176207;28;20030;-78
2021/04/27 07:15:40;;;;;;;5.72;2.00;;;;;;;15.29;41.77;100651.13;5178100;28;20483;-77
2021/04/27 07:18:11;;;;;;;3.70;1.85;;;;;;;14.82;41.78;100651.00;5180745;28;20064;-78
2021/04/27 07:20:45;;;;;;;7.53;2.58;;;;;;;15.57;41.43;100650.47;5178712;28;20028;-78
2021/04/27 07:23:16;;;;;;;4.85;2.40;;;;;;;16.34;41.37;100644.28;5176986;28;20262;-79
2021/04/27 07:25:47;;;;;;;5.85;2.35;;;;;;;14.02;44.00;100656.81;5178850;28;20025;-77
2021/04/27 07:28:17;;;;;;;6.30;2.33;;;;;;;14.32;43.16;100645.69;5176840;28;20044;-76
2021/04/27 07:30:48;;;;;;;4.38;1.95;;;;;;;14.40;43.50;100654.03;5172770;28;20037;-77
2021/04/27 07:33:18;;;;;;;4.72;2.20;;;;;;;14.20;43.06;100648.06;5170609;28;20129;-76
2021/04/27 07:35:49;;;;;;;5.43;1.90;;;;;;;15.39;42.31;100641.75;5171663;28;20030;-75
2021/04/27 07:38:19;;;;;;;4.82;2.38;;;;;;;15.50;41.54;100636.78;5168536;28;20682;-77
2021/04/27 07:40:49;;;;;;;7.20;2.33;;;;;;;16.35;41.52;100636.31;5172891;28;20038;-76
2021/04/27 07:43:20;;;;;;;4.22;2.05;;;;;;;15.70;41.03;100640.97;5171354;28;20463;-77
2021/04/27 07:45:50;;;;;;;7.00;1.95;;;;;;;16.53;40.76;100640.50;5173085;28;20030;-76
2021/04/27 07:48:20;;;;;;;3.53;2.00;;;;;;;16.50;40.15;100637.19;5170021;28;20539;-76
2021/04/27 07:50:51;;;;;;;5.15;2.10;;;;;;;16.11;40.89;100640.34;5171857;28;20480;-77
2021/04/27 07:53:21;;;;;;;9.77;2.33;;;;;;;16.40;42.44;100636.88;5171941;28;20030;-76
2021/04/27 07:55:52;;;;;;;5.13;2.10;;;;;;;16.74;40.79;100639.25;5173177;28;20407;-76
2021/04/27 07:58:22;;;;;;;4.40;2.10;;;;;;;17.26;40.34;100636.00;5171758;28;20034;-76
2021/04/27 08:00:53;;;;;;;5.63;2.10;;;;;;;16.64;40.93;100627.53;5173433;28;20065;-77
2021/04/27 08:03:23;;;;;;;3.58;2.00;;;;;;;16.26;40.47;100626.28;5173231;28;20140;-76
2021/04/27 08:05:54;;;;;;;5.95;2.08;;;;;;;16.06;40.81;100625.72;5171751;28;20092;-77
2021/04/27 08:08:24;;;;;;;5.85;1.98;;;;;;;16.85;41.13;100631.53;5168158;28;20052;-77
2021/04/27 08:10:55;;;;;;;3.17;2.00;;;;;;;16.00;39.69;100636.59;5171683;28;20030;-77
2021/04/27 08:13:25;;;;;;;6.88;2.13;;;;;;;15.96;40.73;100625.38;5171499;28;20072;-78
2021/04/27 08:15:56;;;;;;;3.92;2.00;;;;;;;16.09;40.61;100631.66;5166851;28;20017;-76
2021/04/27 08:18:26;;;;;;;4.55;1.70;;;;;;;14.33;42.21;100636.88;5170003;28;20072;-77
2021/04/27 08:20:57;;;;;;;4.40;1.63;;;;;;;13.32;42.89;100647.91;5175143;28;20026;-77
2021/04/27 08:23:27;;;;;;;4.47;1.80;;;;;;;12.70;44.06;100641.06;5171985;28;20057;-76
2021/04/27 08:25:58;;;;;;;6.78;2.10;;;;;;;12.22;44.23;100632.66;5174695;28;20030;-76
2021/04/27 08:28:29;;;;;;;4.63;1.80;;;;;;;13.32;44.42;100630.38;5172569;28;20026;-77
2021/04/27 08:31:00;;;;;;;4.38;1.67;;;;;;;14.50;41.59;100623.72;5174112;28;20446;-76
2021/04/27 08:33:30;;;;;;;4.03;1.58;;;;;;;15.23;40.27;100626.84;5173448;28;20101;-77
2021/04/27 08:36:01;;;;;;;4.28;1.77;;;;;;;15.88;41.28;100619.69;5171067;28;20108;-76
2021/04/27 08:38:32;;;;;;;3.60;1.58;;;;;;;14.00;41.53;100622.72;5171964;28;20053;-77
2021/04/27 08:41:03;;;;;;;3.90;1.85;;;;;;;13.42;42.78;100629.03;5173890;28;20213;-77
2021/04/27 08:43:34;;;;;;;4.65;1.75;;;;;;;14.64;42.72;100616.00;5166647;28;20042;-77
2021/04/27 08:46:04;;;;;;;4.22;1.83;;;;;;;13.06;43.36;100622.81;5174128;28;20023;-76
2021/04/27 08:48:34;;;;;;;3.38;1.55;;;;;;;13.19;44.04;100610.88;5175041;28;20515;-77
2021/04/27 08:51:05;;;;;;;3.22;1.40;;;;;;;12.86;43.88;100614.13;5170933;28;20113;-77
2021/04/27 08:53:35;;;;;;;6.13;1.85;;;;;;;13.44;44.11;100623.72;5171777;28;20571;-76
2021/04/27 08:56:07;;;;;;;6.63;1.90;;;;;;;14.30;42.92;100621.25;5174507;28;20460;-77
2021/04/27 08:58:37;;;;;;;5.47;1.63;;;;;;;14.18;42.29;100615.72;5173319;28;20104;-78
2021/04/27 09:01:08;;;;;;;4.97;1.50;;;;;;;14.98;41.14;100605.41;5169051;28;20113;-77
2021/04/27 09:03:54;;;;;;;5.07;1.73;;;;;;;15.46;41.68;100603.63;5171711;28;20292;-77
2021/04/27 09:06:24;;;;;;;3.78;1.88;;;;;;;15.42;40.98;100602.13;5167800;28;20053;-78
2021/04/27 09:08:55;;;;;;;7.22;1.83;;;;;;;15.80;40.55;100613.16;5172106;28;20475;-77
2021/04/27 09:11:26;;;;;;;5.00;1.85;;;;;;;13.71;43.21;100611.94;5173257;28;20377;-77
2021/04/27 09:14:14;;;;;;;5.03;1.85;;;;;;;13.25;44.57;100601.88;5174515;28;20072;-77
2021/04/27 09:16:54;;;;;;;4.20;1.58;;;;;;;13.02;45.08;100592.41;5178480;23;20121;-76
2021/04/27 09:19:33;;;;;;;3.88;1.70;;;;;;;13.04;45.67;100594.97;5171046;28;20038;-77
2021/04/27 09:22:17;;;;;;;3.13;1.38;;;;;;;12.00;44.81;100603.88;5159876;28;20065;-76
2021/04/27 09:24:56;;;;;;;4.35;1.70;;;;;;;12.76;45.65;100585.72;5164504;28;20022;-78
2021/04/27 09:27:35;;;;;;;4.68;2.05;;;;;;;13.00;45.82;100593.38;5149655;28;20033;-77
2021/04/27 09:30:24;;;;;;;3.67;1.70;;;;;;;12.84;46.04;100592.34;5146275;28;20161;-77
2021/04/27 09:33:04;;;;;;;6.13;1.70;;;;;;;13.13;45.61;100563.91;5143469;28;20030;-77
2021/04/27 09:35:41;;;;;;;5.70;1.80;;;;;;;12.49;44.27;100582.53;5143666;28;20516;-77
2021/04/27 09:38:26;;;;;;;4.15;1.58;;;;;;;12.54;44.48;100585.84;5149065;28;20564;-77
2021/04/27 09:41:02;;;;;;;2.97;1.48;;;;;;;12.71;43.97;100574.59;5151025;28;20365;-76
2021/04/27 09:43:34;;;;;;;4.82;1.83;;;;;;;12.50;43.66;100575.53;5149515;28;20022;-77
2021/04/27 09:46:10;;;;;;;6.32;1.85;;;;;;;12.67;46.40;100573.88;5143720;28;20403;-77
2021/04/27 09:48:49;;;;;;;6.22;2.20;;;;;;;12.41;45.91;100565.44;5150355;28;20143;-77
2021/04/27 09:51:21;;;;;;;4.40;2.10;;;;;;;12.55;44.54;100563.06;5158138;28;20038;-77
2021/04/27 09:53:52;;;;;;;7.00;1.80;;;;;;;12.86;44.56;100560.81;5158036;28;20102;-77
2021/04/27 09:56:49;;;;;;;4.28;1.60;;;;;;;12.65;44.73;100559.16;5151290;28;20500;-77
2021/04/27 09:59:28;;;;;;;4.20;1.77;;;;;;;12.07;45.41;100558.16;5157793;28;20029;-77
2021/04/27 10:02:01;;;;;;;4.32;1.85;;;;;;;12.39;44.97;100560.28;5162276;28;20026;-77
2021/04/27 10:04:31;;;;;;;7.72;1.73;;;;;;;12.44;44.68;100554.84;5152747;28;20270;-77
2021/04/27 10:07:02;;;;;;;5.07;1.70;;;;;;;11.69;44.66;100556.28;5145102;28;20031;-76
2021/04/27 10:09:32;;;;;;;4.25;1.95;;;;;;;12.12;45.56;100548.34;5153347;28;20030;-78
2021/04/27 10:12:06;;;;;;;4.55;2.08;;;;;;;12.86;47.51;100542.44;5146930;28;20031;-77
2021/04/27 10:14:36;;;;;;;5.07;1.95;;;;;;;12.97;46.10;100532.34;5145672;28;20090;-76
2021/04/27 10:17:07;;;;;;;4.68;1.70;;;;;;;12.53;43.64;100547.44;5153770;28;20022;-77
2021/04/27 10:19:37;;;;;;;3.20;1.67;;;;;;;12.60;45.15;100543.59;5149255;28;20031;-77
2021/04/27 10:22:09;;;;;;;5.15;2.25;;;;;;;12.82;47.27;100535.63;5147787;28;20087;-77
2021/04/27 10:24:40;;;;;;;4.45;2.20;;;;;;;13.14;44.86;100530.63;5157747;28;20034;-77
2021/04/27 10:27:10;;;;;;;4.35;1.85;;;;;;;12.65;44.66;100528.50;5150093;28;20034;-77
2021/04/27 10:29:40;;;;;;;4.00;1.73;;;;;;;12.84;46.25;100534.63;5145661;28;20031;-76
2021/04/27 10:32:26;;;;;;;5.75;2.00;;;;;;;12.64;44.98;100528.59;5151486;28;20058;-76
2021/04/27 10:34:56;;;;;;;5.40;2.30;;;;;;;12.05;45.76;100518.09;5143495;28;20089;-77
2021/04/27 10:37:31;;;;;;;5.00;2.20;;;;;;;12.75;46.84;100511.47;5148397;28;20022;-77
2021/04/27 10:40:01;;;;;;;4.13;1.95;;;;;;;12.71;45.47;100515.16;5150121;28;20308;-77
2021/04/27 10:42:33;;;;;;;5.00;2.15;;;;;;;12.82;45.46;100499.75;5142896;28;20057;-77
2021/04/27 10:45:07;;;;;;;8.00;2.13;;;;;;;12.70;46.14;100515.19;5143548;28;20034;-77
2021/04/27 10:47:44;;;;;;;4.22;1.80;;;;;;;12.76;44.05;100494.81;5150213;28;20092;-78
2021/04/27 10:50:30;;;;;;;6.78;1.73;;;;;;;12.12;44.93;100500.34;5151162;28;20031;-77
2021/04/27 10:53:31;;;;;;;5.28;1.70;;;;;;;12.34;43.51;100486.25;5148747;28;20029;-77
2021/04/27 10:56:05;;;;;;;4.25;1.85;;;;;;;12.35;45.91;100495.81;5142378;28;20049;-77
2021/04/27 10:58:44;;;;;;;7.00;1.77;;;;;;;11.70;44.96;100494.28;5143120;28;20041;-77
2021/04/27 11:01:21;;;;;;;4.07;1.92;;;;;;;11.92;45.77;100493.31;5146629;28;20061;-77
2021/04/27 11:03:52;;;;;;;4.03;1.85;;;;;;;12.23;45.02;100471.91;5156899;28;20023;-78
2021/04/27 11:06:23;;;;;;;4.25;1.98;;;;;;;12.46;44.72;100459.47;5145869;28;20130;-77
2021/04/27 11:09:11;;;;;;;6.20;1.80;;;;;;;12.06;45.69;100479.63;5146849;28;20105;-77
2021/04/27 11:11:41;;;;;;;4.13;1.85;;;;;;;11.80;46.12;100469.44;5152076;28;20091;-77
2021/04/27 11:14:11;;;;;;;3.92;1.77;;;;;;;11.91;44.10;100465.44;5151515;28;20161;-77
2021/04/27 11:16:44;;;;;;;4.72;1.83;;;;;;;11.56;45.29;100465.19;5147324;28;20045;-77
2021/04/27 11:19:20;;;;;;;4.80;1.70;;;;;;;11.80;46.85;100465.03;5156911;28;20077;-78
2021/04/27 11:22:13;;;;;;;3.90;1.80;;;;;;;10.97;43.46;100460.63;5150047;28;20042;-77
2021/04/27 11:24:44;;;;;;;6.60;1.70;;;;;;;11.16;45.58;100460.72;5157502;28;20029;-78
2021/04/27 11:27:33;;;;;;;4.45;1.73;;;;;;;11.02;45.20;100463.03;5153746;28;20087;-77
2021/04/27 11:30:08;;;;;;;3.25;1.67;;;;;;;11.26;45.01;100456.81;5158476;28;20029;-77
2021/04/27 11:32:44;;;;;;;4.10;1.80;;;;;;;11.67;45.41;100457.78;5139229;28;20481;-77
2021/04/27 11:35:16;;;;;;;5.68;1.88;;;;;;;12.14;46.43;100457.44;5150809;28;20080;-77
2021/04/27 11:37:48;;;;;;;4.57;1.70;;;;;;;11.97;45.35;100446.00;5152433;28;20145;-77
2021/04/27 11:40:29;;;;;;;4.90;1.80;;;;;;;12.00;45.65;100451.09;5147857;28;20465;-77
2021/04/27 11:43:10;;;;;;;5.63;1.52;;;;;;;12.32;43.89;100446.13;5150028;28;20523;-78
2021/04/27 11:45:51;;;;;;;4.75;1.77;;;;;;;12.16;44.61;100454.75;5142300;28;20039;-77
2021/04/27 11:48:23;;;;;;;4.32;1.60;;;;;;;12.38;44.17;100432.78;5141799;28;20054;-78
2021/04/27 11:50:53;;;;;;;6.40;1.80;;;;;;;12.35;44.74;100439.91;5153108;28;20030;-78
2021/04/27 11:53:26;;;;;;;3.30;1.50;;;;;;;11.85;43.52;100438.66;5148564;28;20105;-78